Time;durP1;ratioP1;P1;durP2;ratioP2;P2;SDS_P1;SDS_P2;PMS_P1;PMS_P2;Temp;Humidity;BMP_temperature;BMP_pressure;BME280_temperature;BME280_humidity;BME280_pressure;Samples;Min_cycle;Max_cycle;Signal;HPM_P1;HPM_P2
2022/06/16 00:02:06;;;;;;;6.32;2.78;;;;;;;17.33;100.00;100744.72;5091176;28;20031;-67
2022/06/16 00:04:32;;;;;;;6.57;3.13;;;;;;;17.35;100.00;100758.72;5065399;28;20025;-67
2022/06/16 00:06:59;;;;;;;5.72;2.40;;;;;;;17.34;100.00;100758.81;5084150;28;20467;-67
2022/06/16 00:09:24;;;;;;;4.55;2.72;;;;;;;17.31;100.00;100751.94;5089515;28;20025;-67
2022/06/16 00:11:50;;;;;;;6.55;3.00;;;;;;;17.18;100.00;100748.47;5088769;28;20035;-66
2022/06/16 00:14:16;;;;;;;6.57;2.85;;;;;;;17.25;100.00;100757.69;5077781;28;20035;-67
2022/06/16 00:16:41;;;;;;;17.48;3.10;;;;;;;17.21;100.00;100742.94;5080701;28;20051;-68
2022/06/16 00:19:06;;;;;;;6.68;3.17;;;;;;;17.23;100.00;100749.00;5087000;28;20417;-67
2022/06/16 00:21:32;;;;;;;3.90;2.65;;;;;;;17.14;100.00;100739.00;5062282;28;20035;-67
2022/06/16 00:23:57;;;;;;;5.03;3.22;;;;;;;17.13;100.00;100741.78;5095779;28;20391;-67
2022/06/16 00:26:24;;;;;;;4.20;2.38;;;;;;;17.14;100.00;100749.63;5093978;28;20099;-67
2022/06/16 00:29:30;;;;;;;5.85;3.20;;;;;;;17.12;100.00;100759.53;5083213;28;20496;-67
2022/06/16 00:31:56;;;;;;;4.78;2.78;;;;;;;17.05;100.00;100752.97;5080947;28;20026;-67
2022/06/16 00:34:21;;;;;;;8.18;3.08;;;;;;;17.06;100.00;100761.78;5095929;28;20027;-67
2022/06/16 00:36:46;;;;;;;6.00;2.90;;;;;;;16.85;100.00;100737.59;5080338;28;20067;-67
2022/06/16 00:39:12;;;;;;;6.65;3.25;;;;;;;16.68;100.00;100716.69;5095620;28;20027;-67
2022/06/16 00:41:37;;;;;;;6.88;2.95;;;;;;;16.89;100.00;100759.47;5080472;28;20025;-67
2022/06/16 00:44:18;;;;;;;4.53;2.60;;;;;;;16.88;100.00;100766.56;5094013;28;20028;-67
2022/06/16 00:46:43;;;;;;;4.72;2.60;;;;;;;16.72;100.00;100748.22;5061865;28;20123;-67
2022/06/16 00:49:12;;;;;;;5.10;2.55;;;;;;;16.72;100.00;100753.53;5081764;28;20107;-67
2022/06/16 00:51:46;;;;;;;6.82;3.40;;;;;;;16.70;100.00;100765.19;5064542;28;20128;-67
2022/06/16 00:54:21;;;;;;;;;;;;;;;16.65;100.00;100768.19;5080258;28;20024;-67
2022/06/16 00:56:51;;;;;;;5.22;2.90;;;;;;;16.56;100.00;100755.53;5091705;28;20015;-67
2022/06/16 00:59:18;;;;;;;7.72;3.40;;;;;;;16.61;100.00;100771.16;5061236;28;20032;-66
2022/06/16 01:01:44;;;;;;;8.98;3.15;;;;;;;16.42;100.00;100745.03;5093592;28;20077;-67
2022/06/16 01:06:56;;;;;;;14.13;3.00;;;;;;;16.53;100.00;100762.81;5082193;28;20058;-67
2022/06/16 01:09:29;;;;;;;7.32;3.03;;;;;;;16.41;100.00;100742.47;5073945;28;20073;-67
2022/06/16 01:15:08;;;;;;;7.00;4.07;;;;;;;16.52;100.00;100774.41;5089000;28;20079;-68
2022/06/16 01:17:53;;;;;;;;;;;;;;;16.50;100.00;100777.16;5078296;28;20035;-68
2022/06/16 01:20:28;;;;;;;7.72;2.85;;;;;;;16.43;100.00;100777.69;5092305;28;19935;-67
2022/06/16 01:22:56;;;;;;;;;;;;;;;16.42;100.00;100778.66;5064023;28;20390;-68
2022/06/16 01:25:33;;;;;;;4.35;3.15;;;;;;;16.35;100.00;100780.88;5086029;28;19911;-67
2022/06/16 01:28:05;;;;;;;6.30;3.47;;;;;;;16.27;100.00;100789.34;5062126;28;20629;-67
2022/06/16 01:31:03;;;;;;;8.07;3.78;;;;;;;16.20;100.00;100790.69;5081095;28;20402;-67
2022/06/16 01:33:36;;;;;;;12.25;3.78;;;;;;;16.14;100.00;100792.91;5040444;28;20394;-67
2022/06/16 01:36:10;;;;;;;6.67;3.53;;;;;;;16.08;100.00;100798.63;5084905;28;20040;-67
2022/06/16 01:38:47;;;;;;;6.18;3.45;;;;;;;15.99;100.00;100785.97;5079992;28;20085;-67
2022/06/16 01:41:18;;;;;;;5.88;3.20;;;;;;;15.97;100.00;100786.09;5073230;28;20051;-67
2022/06/16 01:43:50;;;;;;;8.30;3.20;;;;;;;15.86;100.00;100772.69;5075055;28;20024;-67
2022/06/16 01:46:26;;;;;;;9.07;3.00;;;;;;;15.91;100.00;100797.09;5073441;28;20035;-67
2022/06/16 01:49:01;;;;;;;5.45;3.03;;;;;;;15.79;100.00;100792.59;5089874;28;20028;-67
2022/06/16 01:51:49;;;;;;;9.93;4.53;;;;;;;15.70;100.00;100803.78;5098635;28;20035;-68
2022/06/16 01:54:32;;;;;;;10.00;3.85;;;;;;;15.63;100.00;100797.19;5057088;28;20028;-69
2022/06/16 01:57:01;;;;;;;5.20;3.58;;;;;;;15.58;100.00;100805.41;5075540;28;20033;-67
2022/06/16 01:59:37;;;;;;;5.95;3.92;;;;;;;15.49;100.00;100807.81;5091402;28;20020;-67
2022/06/16 02:02:06;;;;;;;6.25;3.42;;;;;;;15.41;100.00;100812.75;5081400;28;20115;-66
2022/06/16 02:05:00;;;;;;;7.45;4.03;;;;;;;15.30;100.00;100816.06;5064335;28;20020;-66
2022/06/16 02:07:59;;;;;;;7.30;3.50;;;;;;;15.20;100.00;100815.78;5058395;28;20040;-66
2022/06/16 02:10:29;;;;;;;5.30;3.47;;;;;;;15.15;100.00;100823.16;5044682;28;20076;-66
2022/06/16 02:12:56;;;;;;;7.82;3.47;;;;;;;15.08;100.00;100832.41;5071645;28;20016;-66
2022/06/16 02:15:34;;;;;;;6.93;4.03;;;;;;;14.73;100.00;100779.03;5049148;28;20238;-67
2022/06/16 02:18:02;;;;;;;6.53;3.53;;;;;;;14.91;100.00;100819.38;5050063;28;20035;-67
2022/06/16 02:20:36;;;;;;;9.98;3.78;;;;;;;14.83;100.00;100816.34;5061681;28;20059;-67
2022/06/16 02:23:01;;;;;;;5.93;3.80;;;;;;;14.83;100.00;100817.22;5059779;28;20047;-67
2022/06/16 02:25:27;;;;;;;10.23;4.07;;;;;;;14.70;100.00;100805.66;5080634;28;20465;-67
2022/06/16 02:27:52;;;;;;;7.63;4.25;;;;;;;14.69;100.00;100803.13;5079554;28;20030;-69
2022/06/16 02:30:18;;;;;;;7.57;3.92;;;;;;;14.72;100.00;100806.44;5086885;28;20122;-68
2022/06/16 02:32:49;;;;;;;8.95;3.70;;;;;;;14.72;100.00;100814.38;5081840;28;20028;-68
2022/06/16 02:35:31;;;;;;;6.13;4.10;;;;;;;14.69;100.00;100819.00;5060670;28;20531;-68
2022/06/16 02:38:13;;;;;;;7.57;4.05;;;;;;;14.64;100.00;100815.75;5084856;28;20028;-68
2022/06/16 02:40:41;;;;;;;7.22;3.80;;;;;;;14.56;100.00;100826.81;5055220;28;20037;-68
2022/06/16 02:43:21;;;;;;;6.05;3.80;;;;;;;14.49;100.00;100837.84;5081006;28;20032;-68
2022/06/16 02:46:06;;;;;;;7.25;4.15;;;;;;;14.42;100.00;100841.78;5063768;28;20024;-68
2022/06/16 02:48:48;;;;;;;9.05;4.90;;;;;;;14.20;100.00;100818.34;5061256;28;20063;-68
2022/06/16 02:51:31;;;;;;;6.47;4.30;;;;;;;14.29;100.00;100837.19;5085850;28;20048;-68
2022/06/16 02:54:13;;;;;;;6.38;3.83;;;;;;;14.20;100.00;100842.13;5039165;28;20031;-68
2022/06/16 02:56:56;;;;;;;8.60;4.20;;;;;;;14.17;100.00;100853.75;5059275;28;20471;-67
2022/06/16 02:59:44;;;;;;;8.05;5.18;;;;;;;14.17;100.00;100859.03;5076556;28;20528;-68
2022/06/16 03:02:13;;;;;;;5.18;3.92;;;;;;;14.12;100.00;100865.53;5053381;28;20032;-68
2022/06/16 03:04:41;;;;;;;6.45;4.55;;;;;;;14.05;100.00;100859.75;5071035;28;20033;-67
2022/06/16 03:07:09;;;;;;;8.50;4.85;;;;;;;13.95;100.00;100853.28;5084694;28;20016;-67
2022/06/16 03:09:37;;;;;;;7.40;4.38;;;;;;;14.01;100.00;100860.84;5066503;28;20492;-67
2022/06/16 03:12:03;;;;;;;8.43;5.10;;;;;;;13.62;100.00;100791.81;5055850;28;20024;-67
2022/06/16 03:14:28;;;;;;;11.65;4.00;;;;;;;13.93;100.00;100854.28;5084832;28;20035;-68
2022/06/16 03:16:54;;;;;;;8.75;4.65;;;;;;;13.87;100.00;100863.44;5080718;28;20020;-67
2022/06/16 03:19:21;;;;;;;7.18;4.45;;;;;;;13.82;100.00;100868.13;5083828;28;20101;-67
2022/06/16 03:21:46;;;;;;;7.07;4.70;;;;;;;13.67;100.00;100853.13;5064763;28;20112;-67
2022/06/16 03:24:11;;;;;;;9.20;4.43;;;;;;;13.65;100.00;100861.13;5082290;28;20085;-67
2022/06/16 03:26:37;;;;;;;9.60;5.20;;;;;;;13.66;100.00;100883.09;5089127;28;20186;-67
2022/06/16 03:29:02;;;;;;;8.98;4.70;;;;;;;13.65;100.00;100876.13;5066111;28;20028;-67
2022/06/16 03:31:28;;;;;;;7.10;4.97;;;;;;;13.60;100.00;100867.59;5080052;28;20036;-67
2022/06/16 03:33:53;;;;;;;8.45;5.75;;;;;;;13.57;100.00;100867.78;5041203;28;20579;-67
2022/06/16 03:36:19;;;;;;;9.25;5.40;;;;;;;13.57;100.00;100868.63;5079061;28;20027;-67
2022/06/16 03:38:45;;;;;;;8.57;4.93;;;;;;;13.53;100.00;100863.59;5085896;28;20521;-67
2022/06/16 03:41:11;;;;;;;10.75;5.68;;;;;;;13.54;100.00;100868.81;5072582;28;20035;-67
2022/06/16 03:43:38;;;;;;;8.20;4.88;;;;;;;13.53;100.00;100887.34;5058851;28;20029;-67
2022/06/16 03:46:04;;;;;;;8.05;5.13;;;;;;;13.49;100.00;100886.66;5074560;28;20035;-68
2022/06/16 03:48:29;;;;;;;16.20;5.18;;;;;;;13.43;100.00;100879.09;5083589;28;20035;-68
2022/06/16 03:50:54;;;;;;;7.88;4.88;;;;;;;13.44;100.00;100890.50;5074779;28;20478;-68
2022/06/16 03:53:20;;;;;;;7.32;4.93;;;;;;;13.37;100.00;100891.75;5067045;28;20054;-68
2022/06/16 03:55:45;;;;;;;8.23;5.20;;;;;;;13.36;100.00;100895.31;5076741;28;20044;-67
2022/06/16 03:58:13;;;;;;;6.18;4.50;;;;;;;13.37;100.00;100897.03;5086411;28;20063;-68
2022/06/16 04:00:38;;;;;;;7.18;5.05;;;;;;;13.29;100.00;100898.31;5069365;28;20421;-67
2022/06/16 04:05:47;;;;;;;7.17;5.17;;;;;;;13.26;100.00;100895.81;5076522;28;20047;-68
2022/06/16 04:08:14;;;;;;;11.20;5.47;;;;;;;13.34;100.00;100905.13;5043720;28;20021;-67
2022/06/16 04:10:40;;;;;;;9.38;4.75;;;;;;;13.35;100.00;100899.75;5064107;28;20036;-68
2022/06/16 04:13:05;;;;;;;6.47;5.55;;;;;;;13.35;100.00;100899.75;5054852;28;20032;-67
2022/06/16 04:15:31;;;;;;;8.43;5.32;;;;;;;13.41;100.00;100895.94;5081532;28;20151;-67
2022/06/16 04:17:57;;;;;;;6.75;4.88;;;;;;;13.44;100.00;100898.41;5070902;28;20107;-68
2022/06/16 04:20:23;;;;;;;7.97;5.07;;;;;;;13.49;100.00;100896.38;5078616;28;20032;-67
2022/06/16 04:22:50;;;;;;;7.75;4.45;;;;;;;13.51;100.00;100910.34;5070541;28;20035;-68
2022/06/16 04:25:17;;;;;;;11.63;5.63;;;;;;;13.54;100.00;100907.53;5087328;28;20016;-68
2022/06/16 04:27:43;;;;;;;9.35;4.78;;;;;;;13.56;100.00;100917.09;5079010;28;20541;-68
2022/06/16 04:30:09;;;;;;;9.43;5.15;;;;;;;13.54;100.00;100904.91;5084018;28;20025;-68
2022/06/16 04:32:35;;;;;;;8.93;5.75;;;;;;;13.66;100.00;100925.34;5053937;28;20036;-68
2022/06/16 04:35:00;;;;;;;8.55;5.07;;;;;;;13.72;100.00;100936.44;5073364;28;20024;-67
2022/06/16 04:37:26;;;;;;;7.70;6.05;;;;;;;13.72;100.00;100940.88;5072906;28;20379;-67
2022/06/16 04:39:51;;;;;;;8.30;5.40;;;;;;;13.48;100.00;100898.19;5086865;28;20031;-67
2022/06/16 04:42:17;;;;;;;10.50;5.47;;;;;;;13.81;100.00;100950.94;5078201;28;20057;-67
2022/06/16 04:44:42;;;;;;;9.25;5.93;;;;;;;13.87;100.00;100960.31;5094288;28;20542;-67
2022/06/16 04:47:08;;;;;;;9.65;6.25;;;;;;;13.81;100.00;100941.25;5073238;28;20024;-67
2022/06/16 04:49:33;;;;;;;7.50;5.22;;;;;;;13.88;100.00;100948.81;5093232;28;20052;-68
2022/06/16 04:51:59;;;;;;;14.80;5.93;;;;;;;14.01;100.00;100955.97;5063047;28;20040;-67
2022/06/16 04:54:25;;;;;;;7.45;5.70;;;;;;;14.04;100.00;100953.16;5085199;28;20089;-67
2022/06/16 04:56:50;;;;;;;8.82;6.35;;;;;;;14.09;100.00;100955.56;5045279;28;20047;-67
2022/06/16 04:59:16;;;;;;;7.68;5.47;;;;;;;14.10;100.00;100955.47;5056255;28;20036;-67
2022/06/16 05:01:41;;;;;;;7.80;4.70;;;;;;;13.93;100.00;100922.97;5094320;28;20436;-67
2022/06/16 05:04:07;;;;;;;6.68;5.15;;;;;;;14.19;100.00;100968.16;5070319;28;20104;-67
2022/06/16 05:06:32;;;;;;;11.82;5.43;;;;;;;14.19;100.00;100970.78;5063214;28;20115;-67
2022/06/16 05:08:57;;;;;;;9.13;5.03;;;;;;;14.25;100.00;100965.19;5084730;28;20023;-67
2022/06/16 05:11:23;;;;;;;8.18;5.03;;;;;;;14.35;100.00;100973.50;5077012;28;20069;-67
2022/06/16 05:13:48;;;;;;;9.18;5.05;;;;;;;14.39;100.00;100968.88;5056662;28;20028;-68
2022/06/16 05:16:14;;;;;;;7.55;4.50;;;;;;;14.45;100.00;100968.53;5069740;28;20036;-67
2022/06/16 05:18:39;;;;;;;8.30;4.65;;;;;;;14.51;100.00;100965.53;5067286;28;20020;-67
2022/06/16 05:21:07;;;;;;;7.75;4.63;;;;;;;14.59;100.00;100968.59;5077870;28;20021;-67
2022/06/16 05:23:32;;;;;;;8.55;4.63;;;;;;;14.38;100.00;100919.56;5059568;28;20047;-68
2022/06/16 05:25:57;;;;;;;6.80;5.05;;;;;;;14.66;100.00;100956.72;5075873;28;20028;-68
2022/06/16 05:28:23;;;;;;;7.72;3.83;;;;;;;14.90;100.00;100981.75;5073023;28;20033;-68
2022/06/16 05:30:48;;;;;;;5.93;4.45;;;;;;;14.87;100.00;100971.31;5065987;28;20498;-68
2022/06/16 05:33:14;;;;;;;6.95;4.85;;;;;;;15.03;100.00;100982.72;5077071;28;20032;-67
2022/06/16 05:35:39;;;;;;;8.45;4.97;;;;;;;15.07;100.00;100986.88;5061252;28;20491;-67
2022/06/16 05:38:05;;;;;;;5.90;3.97;;;;;;;15.08;100.00;100980.66;5074242;28;20046;-68
2022/06/16 05:40:31;;;;;;;6.28;4.25;;;;;;;15.16;100.00;100993.44;5065302;28;20028;-67
2022/06/16 05:42:56;;;;;;;5.20;3.70;;;;;;;15.31;100.00;101003.09;5053294;28;20039;-68
2022/06/16 05:45:21;;;;;;;6.82;4.50;;;;;;;15.26;100.00;100994.59;5088078;28;20052;-68
2022/06/16 05:47:47;;;;;;;6.97;4.75;;;;;;;15.43;100.00;101006.81;5083628;28;20033;-67
2022/06/16 05:50:15;;;;;;;7.20;4.22;;;;;;;15.52;100.00;101016.88;5055454;28;20055;-67
2022/06/16 05:52:40;;;;;;;11.00;5.63;;;;;;;15.52;100.00;101006.28;5078553;28;20036;-67
2022/06/16 05:55:06;;;;;;;7.22;4.80;;;;;;;15.53;100.00;101005.34;5084882;28;20035;-67
2022/06/16 05:57:31;;;;;;;8.77;4.25;;;;;;;15.62;100.00;101023.31;5075320;28;20025;-68
2022/06/16 05:59:57;;;;;;;7.65;4.10;;;;;;;15.58;100.00;101012.06;5075996;28;20016;-68
2022/06/16 06:02:22;;;;;;;7.50;4.32;;;;;;;15.71;100.00;101022.78;5080666;28;20064;-67
2022/06/16 06:04:48;;;;;;;7.88;4.60;;;;;;;15.65;100.00;101012.53;5087306;28;20070;-67
2022/06/16 06:07:14;;;;;;;6.95;4.53;;;;;;;15.73;100.00;101023.53;5083936;28;20024;-67
2022/06/16 06:18:06;;;;;;;8.73;5.18;;;;;;;15.88;100.00;101035.00;5080920;28;20051;-67
2022/06/16 06:20:32;;;;;;;6.85;4.38;;;;;;;15.92;100.00;101032.03;5092153;28;20032;-68
2022/06/16 06:22:57;;;;;;;11.18;5.35;;;;;;;16.00;100.00;101029.75;5064479;28;20601;-68
2022/06/16 06:25:23;;;;;;;8.23;4.72;;;;;;;16.09;100.00;101034.47;5091667;28;20049;-68
2022/06/16 06:27:48;;;;;;;8.93;5.25;;;;;;;16.18;100.00;101038.38;5079807;28;20016;-67
2022/06/16 06:30:17;;;;;;;8.68;4.72;;;;;;;16.17;100.00;101040.16;5074416;28;20056;-68
2022/06/16 06:32:44;;;;;;;9.35;5.72;;;;;;;16.25;100.00;101043.19;5052811;28;20427;-67
2022/06/16 06:35:10;;;;;;;11.70;4.93;;;;;;;16.36;100.00;101050.44;5057909;28;20036;-67
2022/06/16 06:37:36;;;;;;;8.07;5.57;;;;;;;16.42;100.00;101051.88;5054920;28;20052;-68
2022/06/16 06:40:01;;;;;;;8.68;5.32;;;;;;;16.51;100.00;101051.28;5085871;28;20024;-68
2022/06/16 06:42:26;;;;;;;7.85;4.47;;;;;;;16.45;100.00;101041.06;5084742;28;20360;-68
2022/06/16 06:44:52;;;;;;;10.13;4.63;;;;;;;16.61;100.00;101065.69;5076058;28;20032;-67
2022/06/16 06:47:22;;;;;;;11.38;6.00;;;;;;;16.64;100.00;101068.16;5075385;28;20029;-67
2022/06/16 06:49:48;;;;;;;8.90;4.80;;;;;;;16.67;100.00;101067.94;5060463;28;20028;-68
2022/06/16 06:52:14;;;;;;;9.32;5.07;;;;;;;16.65;100.00;101064.56;5086603;28;20085;-67
2022/06/16 06:54:39;;;;;;;7.78;5.35;;;;;;;16.57;100.00;101066.84;5045374;28;20020;-68
2022/06/16 06:57:05;;;;;;;6.00;4.25;;;;;;;16.66;100.00;101084.84;5049588;28;20096;-68
2022/06/16 06:59:31;;;;;;;7.90;5.25;;;;;;;16.71;100.00;101075.63;5045380;28;20028;-68
2022/06/16 07:01:56;;;;;;;7.22;4.90;;;;;;;16.69;100.00;101068.72;5081321;28;20028;-67
2022/06/16 07:04:22;;;;;;;8.38;5.15;;;;;;;16.78;100.00;101086.69;5060275;28;20031;-67
2022/06/16 07:06:48;;;;;;;9.15;5.20;;;;;;;16.79;100.00;101091.06;5072660;28;20451;-67
2022/06/16 07:09:16;;;;;;;9.90;5.45;;;;;;;16.87;100.00;101086.06;5072508;28;20378;-68
2022/06/16 07:11:42;;;;;;;6.28;4.40;;;;;;;16.87;100.00;101086.06;5074380;28;20452;-68
2022/06/16 07:14:08;;;;;;;7.43;5.10;;;;;;;17.04;100.00;101099.09;5090672;28;20107;-68
2022/06/16 07:16:34;;;;;;;7.80;5.40;;;;;;;16.92;100.00;101078.69;5088762;28;20104;-68
2022/06/16 07:18:59;;;;;;;6.70;5.10;;;;;;;17.09;100.00;101098.81;5065597;28;20107;-68
2022/06/16 07:21:25;;;;;;;8.63;4.95;;;;;;;16.93;100.00;101072.44;5051012;28;20029;-68
2022/06/16 07:23:51;;;;;;;9.23;5.43;;;;;;;17.23;100.00;101115.56;5065315;28;20050;-68
2022/06/16 07:26:17;;;;;;;8.82;5.90;;;;;;;17.17;100.00;101120.38;5081266;28;20028;-67
2022/06/16 07:28:42;;;;;;;11.15;5.68;;;;;;;17.04;100.00;101108.88;5077998;28;20020;-68
2022/06/16 07:31:08;;;;;;;8.00;5.30;;;;;;;17.07;100.00;101124.59;5079926;28;20028;-67
2022/06/16 07:33:33;;;;;;;10.07;5.35;;;;;;;17.05;100.00;101121.22;5058369;28;20036;-67
2022/06/16 07:35:59;;;;;;;8.88;5.65;;;;;;;17.14;100.00;101145.34;5081916;28;20524;-67
2022/06/16 07:38:26;;;;;;;9.25;5.32;;;;;;;17.20;100.00;101144.94;5062283;28;20435;-67
2022/06/16 07:41:30;;;;;;;5.55;4.13;;;;;;;17.28;100.00;101145.31;5069320;28;20029;-68
2022/06/16 07:43:37;;;;;;;7.10;4.20;;;;;;;17.34;100.00;101136.06;5072396;28;20028;-68
2022/06/16 07:46:02;;;;;;;8.90;4.15;;;;;;;17.25;100.00;101118.94;5072266;28;20116;-68
2022/06/16 07:48:27;;;;;;;6.55;4.45;;;;;;;17.47;100.00;101149.41;5058023;28;20111;-68
2022/06/16 07:50:53;;;;;;;7.63;4.68;;;;;;;17.45;100.00;101144.19;5060953;28;20052;-68
2022/06/16 07:53:18;;;;;;;7.15;5.10;;;;;;;17.42;100.00;101144.38;5063934;28;20025;-66
2022/06/16 07:55:43;;;;;;;9.90;4.80;;;;;;;17.46;100.00;101151.22;5071040;28;20036;-68
2022/06/16 07:58:09;;;;;;;7.07;3.80;;;;;;;17.50;100.00;101155.38;5065217;28;20025;-68
2022/06/16 08:00:35;;;;;;;8.43;3.65;;;;;;;17.62;100.00;101164.34;5074085;28;20432;-68
2022/06/16 08:03:01;;;;;;;8.48;4.43;;;;;;;17.57;100.00;101145.22;5073118;28;20103;-67
2022/06/16 08:05:27;;;;;;;10.60;4.68;;;;;;;17.67;100.00;101159.59;5082659;28;20060;-66
2022/06/16 08:07:52;;;;;;;6.22;3.78;;;;;;;17.66;100.00;101152.56;5072058;28;20040;-66
2022/06/16 08:10:22;;;;;;;5.65;3.22;;;;;;;17.75;100.00;101154.59;5062720;28;20039;-67
2022/06/16 08:12:47;;;;;;;4.60;3.10;;;;;;;17.83;100.00;101160.25;5070206;28;20141;-65
2022/06/16 08:15:13;;;;;;;11.50;4.45;;;;;;;17.91;100.00;101155.28;5076142;28;20094;-67
2022/06/16 08:17:40;;;;;;;9.50;4.15;;;;;;;17.97;100.00;101149.53;5087729;28;20093;-65
2022/06/16 08:20:06;;;;;;;5.53;3.80;;;;;;;17.95;100.00;101124.81;5076758;28;20442;-68
2022/06/16 08:22:32;;;;;;;8.18;4.38;;;;;;;18.10;100.00;101141.53;5058752;28;20066;-67
2022/06/16 08:24:57;;;;;;;12.32;4.35;;;;;;;18.12;100.00;101140.47;5070418;28;20448;-67
2022/06/16 08:27:27;;;;;;;9.07;3.80;;;;;;;18.09;100.00;101143.34;5086568;28;20551;-67
2022/06/16 08:29:52;;;;;;;8.82;4.00;;;;;;;18.26;100.00;101155.47;5057888;28;20448;-67
2022/06/16 08:32:19;;;;;;;11.18;3.78;;;;;;;18.11;100.00;101120.16;5075346;28;20024;-67
2022/06/16 08:34:45;;;;;;;4.25;3.00;;;;;;;18.33;100.00;101152.28;5086103;28;20032;-68
2022/06/16 08:37:10;;;;;;;8.73;3.55;;;;;;;18.44;100.00;101174.63;5039903;28;20062;-67
2022/06/16 08:39:36;;;;;;;4.85;3.08;;;;;;;18.38;100.00;101165.28;5075772;28;20466;-67
2022/06/16 08:42:09;;;;;;;8.02;4.05;;;;;;;18.44;100.00;101164.84;5057578;28;20035;-66
2022/06/16 08:44:46;;;;;;;8.90;3.53;;;;;;;18.52;100.00;101167.00;5061921;28;20082;-67
2022/06/16 08:47:14;;;;;;;7.15;3.10;;;;;;;18.64;100.00;101174.09;5061766;28;20037;-67
2022/06/16 08:49:42;;;;;;;4.53;2.50;;;;;;;18.71;100.00;101170.91;5088481;28;20025;-67
2022/06/16 08:52:15;;;;;;;6.82;3.10;;;;;;;18.83;97.89;101177.13;5063353;28;20029;-68
2022/06/16 08:54:40;;;;;;;4.50;2.42;;;;;;;18.91;99.00;101179.25;5068641;28;20213;-67
2022/06/16 08:57:10;;;;;;;5.70;2.55;;;;;;;18.95;91.36;101183.41;5032425;28;20559;-68
2022/06/16 09:00:02;;;;;;;6.22;2.72;;;;;;;18.88;89.37;101194.50;5048849;28;20882;-67
2022/06/16 09:02:57;;;;;;;6.50;1.90;;;;;;;18.86;90.90;101182.22;5067121;28;20048;-67
2022/06/16 09:05:31;;;;;;;5.35;2.30;;;;;;;19.01;91.46;101190.94;5086980;28;20037;-67
2022/06/16 09:08:18;;;;;;;5.18;2.55;;;;;;;19.17;90.83;101200.38;5073755;28;20107;-67
2022/06/16 09:10:51;;;;;;;5.32;2.33;;;;;;;19.18;86.96;101196.75;5084732;28;20059;-67
2022/06/16 09:13:25;;;;;;;5.68;3.08;;;;;;;19.18;85.41;101193.22;5066176;28;20024;-66
2022/06/16 09:16:05;;;;;;;5.20;2.30;;;;;;;19.23;87.23;101183.09;5074523;28;20094;-67
2022/06/16 09:18:48;;;;;;;3.83;2.15;;;;;;;19.31;89.73;101197.56;5086655;28;20115;-68
2022/06/16 09:21:36;;;;;;;11.70;2.50;;;;;;;19.35;83.64;101209.69;5048765;28;20104;-67
2022/06/16 09:24:22;;;;;;;5.07;2.35;;;;;;;19.28;82.36;101211.09;5074101;28;20029;-66
2022/06/16 09:26:53;;;;;;;4.07;2.25;;;;;;;19.37;82.54;101215.75;5087233;28;20100;-66
2022/06/16 09:29:36;;;;;;;4.40;2.33;;;;;;;19.46;80.03;101216.06;5076121;28;20029;-66
2022/06/16 09:32:19;;;;;;;5.22;2.60;;;;;;;19.38;83.19;101197.94;5045077;28;20027;-67
2022/06/16 09:34:54;;;;;;;4.32;2.30;;;;;;;19.52;81.68;101210.28;5083390;28;20028;-67
2022/06/16 09:37:35;;;;;;;6.18;2.85;;;;;;;19.61;81.48;101218.44;5086444;28;20024;-67
2022/06/16 09:40:47;;;;;;;4.50;2.38;;;;;;;19.68;83.03;101213.50;5083585;28;20050;-67
2022/06/16 09:43:17;;;;;;;4.43;2.30;;;;;;;19.80;83.58;101215.25;5080914;28;20036;-67
2022/06/16 09:45:44;;;;;;;5.18;2.55;;;;;;;19.89;81.81;101220.75;5054481;28;20057;-66
2022/06/16 09:48:36;;;;;;;4.50;2.70;;;;;;;19.95;81.17;101211.41;5074936;28;20135;-68
2022/06/16 09:51:17;;;;;;;6.47;2.53;;;;;;;19.96;82.76;101202.47;5011216;28;20915;-68
2022/06/16 09:54:05;;;;;;;4.78;2.47;;;;;;;20.05;81.20;101217.75;5022817;28;20843;-67
2022/06/16 09:56:43;;;;;;;10.25;2.20;;;;;;;20.16;82.08;101220.47;5062368;28;20120;-65
2022/06/16 09:59:10;;;;;;;8.70;2.28;;;;;;;20.17;79.71;101205.31;5081842;28;20082;-67
2022/06/16 10:01:41;;;;;;;4.70;2.55;;;;;;;20.31;79.18;101213.94;5073279;28;20035;-67
2022/06/16 10:04:07;;;;;;;4.20;2.17;;;;;;;20.34;78.61;101203.06;5054863;28;20034;-66
2022/06/16 10:07:02;;;;;;;4.82;2.22;;;;;;;20.39;78.70;101189.34;5061430;28;20519;-67
2022/06/16 10:09:55;;;;;;;4.53;2.53;;;;;;;20.55;77.43;101215.69;5054012;28;20108;-66
2022/06/16 10:12:50;;;;;;;5.70;1.70;;;;;;;20.58;78.15;101210.94;5066237;28;20037;-68
2022/06/16 10:15:18;;;;;;;3.55;1.52;;;;;;;20.67;78.03;101220.06;5042556;28;20047;-68
2022/06/16 10:17:44;;;;;;;7.18;2.22;;;;;;;20.71;78.05;101213.50;5063534;28;20031;-66
2022/06/16 10:20:11;;;;;;;5.22;2.42;;;;;;;20.67;74.60;101212.03;5055128;28;20029;-67
2022/06/16 10:22:38;;;;;;;4.75;1.75;;;;;;;20.66;77.64;101218.34;5066279;28;20386;-68
2022/06/16 10:25:05;;;;;;;3.50;1.77;;;;;;;20.84;79.77;101222.25;5072541;28;20488;-68
2022/06/16 10:28:13;;;;;;;5.15;1.83;;;;;;;21.02;77.21;101230.63;5093625;28;20046;-67
2022/06/16 10:30:39;;;;;;;5.80;1.90;;;;;;;21.11;76.80;101240.59;5056471;28;20044;-67
2022/06/16 10:33:29;;;;;;;4.78;2.40;;;;;;;21.21;77.22;101247.75;5074010;28;20028;-68
2022/06/16 10:36:06;;;;;;;3.42;1.52;;;;;;;21.26;79.22;101244.69;5075147;28;20024;-68
2022/06/16 10:38:33;;;;;;;8.10;1.98;;;;;;;21.39;77.59;101256.09;5074756;28;20111;-68
2022/06/16 10:41:05;;;;;;;4.95;1.90;;;;;;;21.31;75.71;101224.63;5084563;28;20024;-67
2022/06/16 10:43:37;;;;;;;3.85;2.28;;;;;;;21.30;77.38;101220.25;5071990;28;20056;-67
2022/06/16 10:46:12;;;;;;;5.53;2.00;;;;;;;21.29;77.04;101213.19;5072190;28;20462;-68
2022/06/16 10:48:40;;;;;;;5.32;2.33;;;;;;;21.37;76.13;101209.91;5056878;28;20505;-67
2022/06/16 10:51:23;;;;;;;3.90;2.10;;;;;;;21.45;77.89;101201.25;5092286;28;20028;-67
2022/06/16 10:54:02;;;;;;;3.70;2.05;;;;;;;21.60;76.50;101197.28;5074164;28;20066;-68
2022/06/16 10:56:28;;;;;;;4.78;2.05;;;;;;;21.82;77.29;101210.59;5090458;28;20024;-69
2022/06/16 10:58:56;;;;;;;5.18;2.42;;;;;;;21.99;75.43;101218.06;5078934;28;20031;-68
2022/06/16 11:01:25;;;;;;;7.20;2.33;;;;;;;22.00;77.08;101202.88;5067572;28;20040;-69
2022/06/16 11:03:53;;;;;;;5.32;2.50;;;;;;;21.91;75.49;101177.72;5064060;28;20032;-67
2022/06/16 11:06:21;;;;;;;6.28;2.92;;;;;;;22.16;74.86;101212.13;5067679;28;20107;-68
2022/06/16 11:09:06;;;;;;;5.63;1.95;;;;;;;22.38;76.61;101217.34;5088055;28;20028;-69
2022/06/16 11:11:33;;;;;;;;;;;;;;;22.59;75.70;101211.09;5057219;28;20032;-68
2022/06/16 11:14:01;;;;;;;4.78;2.33;;;;;;;22.71;75.08;101205.53;5084982;28;19909;-68
2022/06/16 11:16:28;;;;;;;6.05;2.47;;;;;;;;;;5068474;28;20060;-67
2022/06/16 11:18:55;;;;;;;5.07;2.20;;;;;;;22.75;73.28;101211.47;5089020;28;20053;-67
2022/06/16 11:21:25;;;;;;;4.88;2.22;;;;;;;22.77;75.17;101201.47;5045349;28;20042;-68
2022/06/16 11:23:54;;;;;;;6.25;2.65;;;;;;;22.81;71.60;101221.69;5057338;28;20021;-66
2022/06/16 11:26:29;;;;;;;13.02;2.67;;;;;;;22.85;70.70;101215.88;5076672;28;20028;-69
2022/06/16 11:29:11;;;;;;;3.92;2.13;;;;;;;22.99;73.42;101209.31;5054751;28;20028;-69
2022/06/16 11:31:39;;;;;;;8.65;2.15;;;;;;;23.54;76.57;101220.44;5085258;28;20032;-68
2022/06/16 11:34:11;;;;;;;6.40;2.67;;;;;;;23.83;67.48;101219.47;5061571;28;20025;-68
2022/06/16 11:36:50;;;;;;;4.35;2.30;;;;;;;24.04;70.59;101226.50;5073446;28;20489;-67
2022/06/16 11:39:48;;;;;;;3.60;1.95;;;;;;;24.24;72.34;101221.00;5081568;28;20090;-67
2022/06/16 11:42:32;;;;;;;4.20;2.55;;;;;;;24.96;67.18;101225.75;5054691;28;20044;-67
2022/06/16 11:45:05;;;;;;;4.93;2.20;;;;;;;25.61;65.20;101224.66;5077764;28;20078;-65
2022/06/16 11:47:41;;;;;;;5.53;2.75;;;;;;;26.53;64.73;101199.94;5063199;28;20107;-67
2022/06/16 11:50:38;;;;;;;5.82;2.55;;;;;;;27.98;67.51;101216.59;5076870;28;20546;-68
2022/06/16 11:53:10;;;;;;;5.75;2.45;;;;;;;29.32;62.82;101219.28;5051253;28;20878;-68